sensor_id;sensor_type;location;lat;lon;timestamp;pressure;altitude;pressure_sealevel;temperature;humidity
56414;BME280;42318;48.452;19.526;2024-02-15T00:02:32;98955.66;;;21.16;51.48
56414;BME280;42318;48.452;19.526;2024-02-15T00:05:33;98957.28;;;21.17;51.29
56414;BME280;42318;48.452;19.526;2024-02-15T00:08:36;98953.75;;;21.16;51.70
56414;BME280;42318;48.452;19.526;2024-02-15T00:11:37;98959.19;;;21.16;51.31
56414;BME280;42318;48.452;19.526;2024-02-15T00:14:39;98949.13;;;21.17;51.89
56414;BME280;42318;48.452;19.526;2024-02-15T00:17:40;98951.59;;;21.18;51.27
56414;BME280;42318;48.452;19.526;2024-02-15T00:20:40;98948.63;;;21.20;51.40
56414;BME280;42318;48.452;19.526;2024-02-15T00:23:41;98958.69;;;21.19;51.40
56414;BME280;42318;48.452;19.526;2024-02-15T00:26:42;98962.00;;;21.21;51.32
56414;BME280;42318;48.452;19.526;2024-02-15T00:29:43;98968.50;;;21.20;51.44
56414;BME280;42318;48.452;19.526;2024-02-15T00:32:44;98957.88;;;21.19;51.40
56414;BME280;42318;48.452;19.526;2024-02-15T00:35:46;98952.59;;;21.12;51.40
56414;BME280;42318;48.452;19.526;2024-02-15T00:38:47;98962.25;;;21.20;51.46
56414;BME280;42318;48.452;19.526;2024-02-15T00:41:48;98961.16;;;21.21;51.58
56414;BME280;42318;48.452;19.526;2024-02-15T00:44:48;98962.25;;;21.20;51.68
56414;BME280;42318;48.452;19.526;2024-02-15T00:47:50;98948.03;;;21.18;51.70
56414;BME280;42318;48.452;19.526;2024-02-15T00:50:50;98927.75;;;21.09;51.53
56414;BME280;42318;48.452;19.526;2024-02-15T00:53:51;98945.06;;;21.19;51.55
56414;BME280;42318;48.452;19.526;2024-02-15T00:56:51;98959.25;;;21.21;51.67
56414;BME280;42318;48.452;19.526;2024-02-15T00:59:52;98960.09;;;21.22;51.73
56414;BME280;42318;48.452;19.526;2024-02-15T01:02:53;98953.59;;;21.23;51.46
56414;BME280;42318;48.452;19.526;2024-02-15T01:05:54;98956.31;;;21.23;51.42
56414;BME280;42318;48.452;19.526;2024-02-15T01:08:54;98953.00;;;21.21;51.50
56414;BME280;42318;48.452;19.526;2024-02-15T01:11:55;98948.13;;;21.23;51.59
56414;BME280;42318;48.452;19.526;2024-02-15T01:14:56;98950.00;;;21.22;51.36
56414;BME280;42318;48.452;19.526;2024-02-15T01:17:57;98943.72;;;21.22;51.45
56414;BME280;42318;48.452;19.526;2024-02-15T01:20:58;98952.72;;;21.22;51.83
56414;BME280;42318;48.452;19.526;2024-02-15T01:23:59;98960.69;;;21.24;51.91
56414;BME280;42318;48.452;19.526;2024-02-15T01:27:00;98960.69;;;21.24;51.67
56414;BME280;42318;48.452;19.526;2024-02-15T01:30:02;98939.63;;;21.19;51.68
56414;BME280;42318;48.452;19.526;2024-02-15T01:33:04;98955.25;;;21.24;51.46
56414;BME280;42318;48.452;19.526;2024-02-15T01:36:05;98965.31;;;21.23;51.53
56414;BME280;42318;48.452;19.526;2024-02-15T01:39:06;98957.13;;;21.23;51.48
56414;BME280;42318;48.452;19.526;2024-02-15T01:42:08;98956.91;;;21.25;51.56
56414;BME280;42318;48.452;19.526;2024-02-15T01:45:08;98955.84;;;21.26;51.66
56414;BME280;42318;48.452;19.526;2024-02-15T01:48:13;98956.91;;;21.25;51.67
56414;BME280;42318;48.452;19.526;2024-02-15T01:51:15;98955.25;;;21.24;51.74
56414;BME280;42318;48.452;19.526;2024-02-15T01:54:16;98955.00;;;21.25;51.36
56414;BME280;42318;48.452;19.526;2024-02-15T01:57:18;98949.78;;;21.24;51.59
56414;BME280;42318;48.452;19.526;2024-02-15T02:00:21;98953.34;;;21.24;51.29
56414;BME280;42318;48.452;19.526;2024-02-15T02:03:22;98955.25;;;21.24;51.78
56414;BME280;42318;48.452;19.526;2024-02-15T02:06:24;98955.47;;;21.22;51.65
56414;BME280;42318;48.452;19.526;2024-02-15T02:09:24;98950.88;;;21.23;51.92
56414;BME280;42318;48.452;19.526;2024-02-15T02:12:25;98957.97;;;21.24;51.45
56414;BME280;42318;48.452;19.526;2024-02-15T02:15:27;98960.91;;;21.22;51.99
56414;BME280;42318;48.452;19.526;2024-02-15T02:18:29;98961.50;;;21.24;51.87
56414;BME280;42318;48.452;19.526;2024-02-15T02:21:30;98952.72;;;21.22;51.87
56414;BME280;42318;48.452;19.526;2024-02-15T02:24:33;98955.84;;;21.26;51.69
56414;BME280;42318;48.452;19.526;2024-02-15T02:27:37;98948.63;;;21.20;51.63
56414;BME280;42318;48.452;19.526;2024-02-15T02:30:38;98956.06;;;21.24;51.69
56414;BME280;42318;48.452;19.526;2024-02-15T02:33:42;98959.38;;;21.26;51.96
56414;BME280;42318;48.452;19.526;2024-02-15T02:36:47;98936.06;;;21.19;51.81
56414;BME280;42318;48.452;19.526;2024-02-15T02:39:48;98940.56;;;21.25;51.73
56414;BME280;42318;48.452;19.526;2024-02-15T02:42:56;98927.63;;;21.20;51.46
56414;BME280;42318;48.452;19.526;2024-02-15T02:45:59;98930.38;;;21.20;51.87
56414;BME280;42318;48.452;19.526;2024-02-15T02:48:59;98943.88;;;21.27;51.67
56414;BME280;42318;48.452;19.526;2024-02-15T02:52:00;98943.88;;;21.27;51.53
56414;BME280;42318;48.452;19.526;2024-02-15T02:55:01;98940.56;;;21.25;51.98
56414;BME280;42318;48.452;19.526;2024-02-15T02:58:01;98937.59;;;21.26;51.88
56414;BME280;42318;48.452;19.526;2024-02-15T03:01:03;98948.50;;;21.26;52.18
56414;BME280;42318;48.452;19.526;2024-02-15T03:04:04;98941.38;;;21.25;52.35
56414;BME280;42318;48.452;19.526;2024-02-15T03:07:04;98941.38;;;21.25;52.17
56414;BME280;42318;48.452;19.526;2024-02-15T03:10:05;98940.06;;;21.28;51.98
56414;BME280;42318;48.452;19.526;2024-02-15T03:13:09;98950.97;;;21.28;52.07
56414;BME280;42318;48.452;19.526;2024-02-15T03:16:09;98948.81;;;21.30;52.19
56414;BME280;42318;48.452;19.526;2024-02-15T03:19:10;98946.34;;;21.28;52.35
56414;BME280;42318;48.452;19.526;2024-02-15T03:22:12;98947.97;;;21.29;52.31
56414;BME280;42318;48.452;19.526;2024-02-15T03:25:14;98955.34;;;21.29;51.89
56414;BME280;42318;48.452;19.526;2024-02-15T03:28:14;98952.59;;;21.29;52.39
56414;BME280;42318;48.452;19.526;2024-02-15T03:31:16;98956.16;;;21.29;52.42
56414;BME280;42318;48.452;19.526;2024-02-15T03:34:17;98963.00;;;21.32;52.14
56414;BME280;42318;48.452;19.526;2024-02-15T03:37:21;98955.91;;;21.31;52.35
56414;BME280;42318;48.452;19.526;2024-02-15T03:40:22;98961.09;;;21.33;52.18
56414;BME280;42318;48.452;19.526;2024-02-15T03:43:23;98956.72;;;21.31;52.52
56414;BME280;42318;48.452;19.526;2024-02-15T03:46:24;98963.00;;;21.32;52.28
56414;BME280;42318;48.452;19.526;2024-02-15T03:49:24;98947.16;;;21.29;52.18
56414;BME280;42318;48.452;19.526;2024-02-15T03:52:25;98956.47;;;21.33;52.35
56414;BME280;42318;48.452;19.526;2024-02-15T03:55:25;98952.94;;;21.33;52.27
56414;BME280;42318;48.452;19.526;2024-02-15T03:58:26;98942.44;;;21.24;52.12
56414;BME280;42318;48.452;19.526;2024-02-15T04:01:27;98960.84;;;21.34;52.01
56414;BME280;42318;48.452;19.526;2024-02-15T04:04:27;98958.38;;;21.33;52.42
56414;BME280;42318;48.452;19.526;2024-02-15T04:07:30;98970.94;;;21.34;52.10
56414;BME280;42318;48.452;19.526;2024-02-15T04:10:31;98963.00;;;21.32;52.56
56414;BME280;42318;48.452;19.526;2024-02-15T04:13:32;98965.72;;;21.32;52.33
56414;BME280;42318;48.452;19.526;2024-02-15T04:16:32;98972.00;;;21.33;52.49
56414;BME280;42318;48.452;19.526;2024-02-15T04:19:33;98961.09;;;21.33;52.35
56414;BME280;42318;48.452;19.526;2024-02-15T04:22:34;98967.13;;;21.35;52.29
56414;BME280;42318;48.452;19.526;2024-02-15T04:25:38;98970.69;;;21.35;52.54
56414;BME280;42318;48.452;19.526;2024-02-15T04:28:40;98970.94;;;21.34;52.09
56414;BME280;42318;48.452;19.526;2024-02-15T04:31:41;98973.41;;;21.35;52.07
56414;BME280;42318;48.452;19.526;2024-02-15T04:34:43;98956.66;;;21.26;52.52
56414;BME280;42318;48.452;19.526;2024-02-15T04:37:46;98978.84;;;21.35;52.63
56414;BME280;42318;48.452;19.526;2024-02-15T04:40:48;98959.72;;;21.30;52.48
56414;BME280;42318;48.452;19.526;2024-02-15T04:43:51;98982.66;;;21.34;52.14
56414;BME280;42318;48.452;19.526;2024-02-15T04:46:55;98979.94;;;21.34;52.34
56414;BME280;42318;48.452;19.526;2024-02-15T04:49:56;98984.31;;;21.35;52.19
56414;BME280;42318;48.452;19.526;2024-02-15T04:52:56;98969.59;;;21.36;52.13
56414;BME280;42318;48.452;19.526;2024-02-15T04:55:57;98967.94;;;21.35;52.32
56414;BME280;42318;48.452;19.526;2024-02-15T04:59:01;98967.69;;;21.37;52.34
56414;BME280;42318;48.452;19.526;2024-02-15T05:02:02;98960.34;;;21.37;52.42
56414;BME280;42318;48.452;19.526;2024-02-15T05:05:03;98964.97;;;21.37;52.53
56414;BME280;42318;48.452;19.526;2024-02-15T05:08:05;98964.16;;;21.36;52.35
56414;BME280;42318;48.452;19.526;2024-02-15T05:11:06;98971.81;;;21.39;52.23
56414;BME280;42318;48.452;19.526;2024-02-15T05:14:14;98969.84;;;21.35;52.43
56414;BME280;42318;48.452;19.526;2024-02-15T05:17:19;98971.25;;;21.37;52.41
56414;BME280;42318;48.452;19.526;2024-02-15T05:20:20;98976.69;;;21.37;52.35
56414;BME280;42318;48.452;19.526;2024-02-15T05:23:21;98973.97;;;21.37;52.46
56414;BME280;42318;48.452;19.526;2024-02-15T05:26:22;98981.06;;;21.38;52.33
56414;BME280;42318;48.452;19.526;2024-02-15T05:29:23;98967.94;;;21.35;52.50
56414;BME280;42318;48.452;19.526;2024-02-15T05:32:24;98986.53;;;21.38;52.14
56414;BME280;42318;48.452;19.526;2024-02-15T05:35:26;98984.88;;;21.37;52.43
56414;BME280;42318;48.452;19.526;2024-02-15T05:38:28;98978.59;;;21.37;52.53
56414;BME280;42318;48.452;19.526;2024-02-15T05:41:29;98984.88;;;21.37;52.31
56414;BME280;42318;48.452;19.526;2024-02-15T05:44:30;98987.59;;;21.37;52.22
56414;BME280;42318;48.452;19.526;2024-02-15T05:47:30;98991.97;;;21.38;52.33
56414;BME280;42318;48.452;19.526;2024-02-15T05:50:31;98992.81;;;21.39;52.25
56414;BME280;42318;48.452;19.526;2024-02-15T05:53:32;98994.44;;;21.40;52.40
56414;BME280;42318;48.452;19.526;2024-02-15T05:56:36;98994.69;;;21.38;52.52
56414;BME280;42318;48.452;19.526;2024-02-15T05:59:37;98987.53;;;21.32;52.47
56414;BME280;42318;48.452;19.526;2024-02-15T06:02:37;98992.22;;;21.37;52.31
56414;BME280;42318;48.452;19.526;2024-02-15T06:05:38;99001.81;;;21.39;52.46
56414;BME280;42318;48.452;19.526;2024-02-15T06:08:40;99003.97;;;21.37;52.20
56414;BME280;42318;48.452;19.526;2024-02-15T06:11:40;99006.19;;;21.40;52.37
56414;BME280;42318;48.452;19.526;2024-02-15T06:14:41;98995.72;;;21.32;52.68
56414;BME280;42318;48.452;19.526;2024-02-15T06:17:42;99007.81;;;21.41;52.65
56414;BME280;42318;48.452;19.526;2024-02-15T06:20:46;99006.19;;;21.40;52.54
56414;BME280;42318;48.452;19.526;2024-02-15T06:23:49;99012.44;;;21.41;52.81
56414;BME280;42318;48.452;19.526;2024-02-15T06:26:51;99013.53;;;21.40;52.75
56414;BME280;42318;48.452;19.526;2024-02-15T06:29:54;99014.34;;;21.40;52.76
56414;BME280;42318;48.452;19.526;2024-02-15T06:33:13;99020.63;;;21.41;52.47
56414;BME280;42318;48.452;19.526;2024-02-15T06:36:32;99030.72;;;21.40;52.26
56414;BME280;42318;48.452;19.526;2024-02-15T06:39:51;99014.28;;;21.35;52.65
56414;BME280;42318;48.452;19.526;2024-02-15T06:42:53;99023.34;;;21.41;52.32
56414;BME280;42318;48.452;19.526;2024-02-15T06:45:53;99027.97;;;21.40;52.52
56414;BME280;42318;48.452;19.526;2024-02-15T06:48:55;99025.25;;;21.40;52.48
56414;BME280;42318;48.452;19.526;2024-02-15T06:51:58;99029.06;;;21.39;52.46
56414;BME280;42318;48.452;19.526;2024-02-15T06:55:02;99021.63;;;21.35;52.49
56414;BME280;42318;48.452;19.526;2024-02-15T06:58:03;99027.72;;;21.42;52.36
56414;BME280;42318;48.452;19.526;2024-02-15T07:01:06;99033.44;;;21.40;52.44
56414;BME280;42318;48.452;19.526;2024-02-15T07:04:06;99041.63;;;21.40;52.29
56414;BME280;42318;48.452;19.526;2024-02-15T07:07:08;99046.00;;;21.41;52.50
56414;BME280;42318;48.452;19.526;2024-02-15T07:10:09;99048.72;;;21.41;52.32
56414;BME280;42318;48.452;19.526;2024-02-15T07:13:10;99050.63;;;21.41;52.55
56414;BME280;42318;48.452;19.526;2024-02-15T07:16:11;99050.63;;;21.41;52.39
56414;BME280;42318;48.452;19.526;2024-02-15T07:19:15;99056.63;;;21.43;52.23
56414;BME280;42318;48.452;19.526;2024-02-15T07:22:16;99039.91;;;21.34;52.36
56414;BME280;42318;48.452;19.526;2024-02-15T07:25:17;99055.81;;;21.42;52.24
56414;BME280;42318;48.452;19.526;2024-02-15T07:28:19;99045.41;;;21.39;52.36
56414;BME280;42318;48.452;19.526;2024-02-15T07:31:21;99057.16;;;21.40;52.38
56414;BME280;42318;48.452;19.526;2024-02-15T07:34:22;99059.63;;;21.41;52.39
56414;BME280;42318;48.452;19.526;2024-02-15T07:37:22;99056.31;;;21.39;52.32
56414;BME280;42318;48.452;19.526;2024-02-15T07:40:29;99062.59;;;21.40;52.27
56414;BME280;42318;48.452;19.526;2024-02-15T07:43:29;99066.16;;;21.40;52.26
56414;BME280;42318;48.452;19.526;2024-02-15T07:46:30;99062.59;;;21.40;52.58
56414;BME280;42318;48.452;19.526;2024-02-15T07:49:30;99057.41;;;21.38;52.53
56414;BME280;42318;48.452;19.526;2024-02-15T07:52:31;99053.03;;;21.37;52.26
56414;BME280;42318;48.452;19.526;2024-02-15T07:55:33;99056.56;;;21.38;52.54
56414;BME280;42318;48.452;19.526;2024-02-15T07:58:34;99051.88;;;21.33;52.44
56414;BME280;42318;48.452;19.526;2024-02-15T08:01:35;99057.31;;;21.33;52.44
56414;BME280;42318;48.452;19.526;2024-02-15T08:04:36;99065.91;;;21.42;52.70
56414;BME280;42318;48.452;19.526;2024-02-15T08:07:42;99059.38;;;21.43;53.24
56414;BME280;42318;48.452;19.526;2024-02-15T08:10:42;99058.28;;;21.44;53.51
56414;BME280;42318;48.452;19.526;2024-02-15T08:13:51;99056.38;;;21.44;53.77
56414;BME280;42318;48.452;19.526;2024-02-15T08:16:54;99044.34;;;21.40;53.84
56414;BME280;42318;48.452;19.526;2024-02-15T08:19:56;99049.59;;;21.47;54.33
56414;BME280;42318;48.452;19.526;2024-02-15T08:22:57;99051.84;;;21.50;53.87
56414;BME280;42318;48.452;19.526;2024-02-15T08:25:59;99057.53;;;21.48;54.13
56414;BME280;42318;48.452;19.526;2024-02-15T08:29:00;99049.59;;;21.47;54.01
56414;BME280;42318;48.452;19.526;2024-02-15T08:32:00;99059.75;;;21.51;54.28
56414;BME280;42318;48.452;19.526;2024-02-15T08:35:01;99059.75;;;21.51;54.54
56414;BME280;42318;48.452;19.526;2024-02-15T08:38:01;99055.94;;;21.52;54.13
56414;BME280;42318;48.452;19.526;2024-02-15T08:41:05;99059.25;;;21.54;54.33
56414;BME280;42318;48.452;19.526;2024-02-15T08:44:07;99059.44;;;21.48;54.46
56414;BME280;42318;48.452;19.526;2024-02-15T08:47:12;99059.25;;;21.54;54.40
56414;BME280;42318;48.452;19.526;2024-02-15T08:50:12;99069.34;;;21.54;54.63
56414;BME280;42318;48.452;19.526;2024-02-15T08:53:13;99069.09;;;21.55;54.29
56414;BME280;42318;48.452;19.526;2024-02-15T08:56:15;99068.25;;;21.55;54.52
56414;BME280;42318;48.452;19.526;2024-02-15T08:59:16;99062.22;;;21.53;54.15
56414;BME280;42318;48.452;19.526;2024-02-15T09:02:18;99055.94;;;21.52;54.44
56414;BME280;42318;48.452;19.526;2024-02-15T09:05:19;99059.25;;;21.54;54.35
56414;BME280;42318;48.452;19.526;2024-02-15T09:08:22;99057.59;;;21.53;54.26
56414;BME280;42318;48.452;19.526;2024-02-15T09:11:28;99066.34;;;21.55;54.33
56414;BME280;42318;48.452;19.526;2024-02-15T09:14:29;99060.06;;;21.55;54.34
56414;BME280;42318;48.452;19.526;2024-02-15T09:17:30;99057.59;;;21.53;54.50
56414;BME280;42318;48.452;19.526;2024-02-15T09:20:32;99060.91;;;21.55;54.38
56414;BME280;42318;48.452;19.526;2024-02-15T09:23:33;99057.59;;;21.53;54.28
56414;BME280;42318;48.452;19.526;2024-02-15T09:26:34;99058.44;;;21.54;54.31
56414;BME280;42318;48.452;19.526;2024-02-15T09:29:35;99059.25;;;21.54;54.11
56414;BME280;42318;48.452;19.526;2024-02-15T09:32:39;99056.53;;;21.54;54.62
56414;BME280;42318;48.452;19.526;2024-02-15T09:35:40;99070.47;;;21.58;55.38
56414;BME280;42318;48.452;19.526;2024-02-15T09:38:40;99068.56;;;21.58;55.17
56414;BME280;42318;48.452;19.526;2024-02-15T09:41:41;99068.31;;;21.60;55.47
56414;BME280;42318;48.452;19.526;2024-02-15T09:44:43;99069.16;;;21.60;55.14
56414;BME280;42318;48.452;19.526;2024-02-15T09:47:45;99066.34;;;21.55;55.03
56414;BME280;42318;48.452;19.526;2024-02-15T09:50:45;99069.16;;;21.60;54.91
56414;BME280;42318;48.452;19.526;2024-02-15T09:53:47;99064.19;;;21.57;55.72
56414;BME280;42318;48.452;19.526;2024-02-15T09:56:50;99061.53;;;21.62;55.78
56414;BME280;42318;48.452;19.526;2024-02-15T09:59:51;99055.25;;;21.62;56.00
56414;BME280;42318;48.452;19.526;2024-02-15T10:02:54;99060.97;;;21.60;56.07
56414;BME280;42318;48.452;19.526;2024-02-15T10:05:58;99064.84;;;21.64;55.95
56414;BME280;42318;48.452;19.526;2024-02-15T10:09:24;99064.84;;;21.64;56.08
56414;BME280;42318;48.452;19.526;2024-02-15T10:12:36;99061.53;;;21.62;55.62
56414;BME280;42318;48.452;19.526;2024-02-15T10:15:39;99067.56;;;21.64;55.74
56414;BME280;42318;48.452;19.526;2024-02-15T10:18:41;99062.38;;;21.63;55.84
56414;BME280;42318;48.452;19.526;2024-02-15T10:21:41;99061.84;;;21.66;56.25
56414;BME280;42318;48.452;19.526;2024-02-15T10:24:42;99052.03;;;21.65;56.14
56414;BME280;42318;48.452;19.526;2024-02-15T10:27:44;99055.56;;;21.66;55.92
56414;BME280;42318;48.452;19.526;2024-02-15T10:30:45;99060.56;;;21.69;56.32
56414;BME280;42318;48.452;19.526;2024-02-15T10:33:48;99056.16;;;21.68;55.57
56414;BME280;42318;48.452;19.526;2024-02-15T10:36:49;99061.38;;;21.69;56.07
56414;BME280;42318;48.452;19.526;2024-02-15T10:40:04;99063.03;;;21.70;55.93
56414;BME280;42318;48.452;19.526;2024-02-15T10:43:08;99053.66;;;21.66;55.39
56414;BME280;42318;48.452;19.526;2024-02-15T10:46:11;99057.22;;;21.67;55.75
56414;BME280;42318;48.452;19.526;2024-02-15T10:49:13;99052.59;;;21.67;55.54
56414;BME280;42318;48.452;19.526;2024-02-15T10:52:15;99040.53;;;21.63;55.61
56414;BME280;42318;48.452;19.526;2024-02-15T10:58:32;99038.91;;;21.62;55.26
56414;BME280;42318;48.452;19.526;2024-02-15T11:01:37;99054.50;;;21.67;55.43
56414;BME280;42318;48.452;19.526;2024-02-15T11:04:40;99037.31;;;21.66;55.14
56414;BME280;42318;48.452;19.526;2024-02-15T11:07:44;99040.28;;;21.64;55.09
56414;BME280;42318;48.452;19.526;2024-02-15T11:10:46;99036.22;;;21.67;55.16
56414;BME280;42318;48.452;19.526;2024-02-15T11:13:48;99031.03;;;21.66;55.16
56414;BME280;42318;48.452;19.526;2024-02-15T11:16:49;99026.41;;;21.66;55.54
56414;BME280;42318;48.452;19.526;2024-02-15T11:19:51;99024.75;;;21.65;55.23
56414;BME280;42318;48.452;19.526;2024-02-15T11:22:56;99030.47;;;21.63;55.12
56414;BME280;42318;48.452;19.526;2024-02-15T11:25:58;99019.56;;;21.63;55.21
56414;BME280;42318;48.452;19.526;2024-02-15T11:29:01;99026.66;;;21.64;55.13
56414;BME280;42318;48.452;19.526;2024-02-15T11:32:02;99022.03;;;21.65;54.72
56414;BME280;42318;48.452;19.526;2024-02-15T11:35:07;99025.84;;;21.64;54.71
56414;BME280;42318;48.452;19.526;2024-02-15T11:38:27;99025.84;;;21.64;55.04
56414;BME280;42318;48.452;19.526;2024-02-15T11:41:28;99020.38;;;21.64;54.63
56414;BME280;42318;48.452;19.526;2024-02-15T11:44:29;99021.19;;;21.64;54.70
56414;BME280;42318;48.452;19.526;2024-02-15T11:47:32;99015.75;;;21.64;54.48
56414;BME280;42318;48.452;19.526;2024-02-15T11:50:35;99011.63;;;21.62;54.76
56414;BME280;42318;48.452;19.526;2024-02-15T11:53:37;99018.72;;;21.63;54.41
56414;BME280;42318;48.452;19.526;2024-02-15T11:59:44;99014.94;;;21.64;54.55
56414;BME280;42318;48.452;19.526;2024-02-15T12:03:05;98999.63;;;21.63;54.83
56414;BME280;42318;48.452;19.526;2024-02-15T12:06:25;99001.03;;;21.66;54.86
56414;BME280;42318;48.452;19.526;2024-02-15T12:09:44;98998.56;;;21.64;54.52
56414;BME280;42318;48.452;19.526;2024-02-15T12:13:04;99004.00;;;21.64;54.77
56414;BME280;42318;48.452;19.526;2024-02-15T12:16:23;99004.00;;;21.64;54.70
56414;BME280;42318;48.452;19.526;2024-02-15T12:19:42;98988.94;;;21.56;54.97
56414;BME280;42318;48.452;19.526;2024-02-15T12:22:45;99001.28;;;21.64;54.75
56414;BME280;42318;48.452;19.526;2024-02-15T12:25:53;99001.53;;;21.62;54.62
56414;BME280;42318;48.452;19.526;2024-02-15T12:28:54;98989.25;;;21.60;55.00
56414;BME280;42318;48.452;19.526;2024-02-15T12:31:58;99000.22;;;21.65;55.03
56414;BME280;42318;48.452;19.526;2024-02-15T12:35:13;98997.75;;;21.63;54.68
56414;BME280;42318;48.452;19.526;2024-02-15T12:38:17;98965.34;;;21.45;54.59
56414;BME280;42318;48.452;19.526;2024-02-15T12:41:19;98993.94;;;21.64;54.54
56414;BME280;42318;48.452;19.526;2024-02-15T12:44:20;98993.94;;;21.64;54.71
56414;BME280;42318;48.452;19.526;2024-02-15T12:47:22;98981.94;;;21.66;54.65
56414;BME280;42318;48.452;19.526;2024-02-15T12:50:27;98981.13;;;21.65;54.56
56414;BME280;42318;48.452;19.526;2024-02-15T12:53:28;98966.66;;;21.64;54.82
56414;BME280;42318;48.452;19.526;2024-02-15T12:56:29;98964.75;;;21.65;54.80
56414;BME280;42318;48.452;19.526;2024-02-15T12:59:30;98950.50;;;21.58;54.73
56414;BME280;42318;48.452;19.526;2024-02-15T13:02:31;98961.22;;;21.64;54.69
56414;BME280;42318;48.452;19.526;2024-02-15T13:05:32;98955.75;;;21.64;54.83
56414;BME280;42318;48.452;19.526;2024-02-15T13:08:33;98957.41;;;21.66;54.72
56414;BME280;42318;48.452;19.526;2024-02-15T13:11:35;98961.22;;;21.64;54.80
56414;BME280;42318;48.452;19.526;2024-02-15T13:14:35;98963.94;;;21.64;54.32
56414;BME280;42318;48.452;19.526;2024-02-15T13:17:37;98962.84;;;21.66;54.76
56414;BME280;42318;48.452;19.526;2024-02-15T13:20:38;98962.84;;;21.66;54.40
56414;BME280;42318;48.452;19.526;2024-02-15T13:23:38;98961.22;;;21.64;54.42
56414;BME280;42318;48.452;19.526;2024-02-15T13:26:39;98960.13;;;21.66;54.38
56414;BME280;42318;48.452;19.526;2024-02-15T13:29:40;98949.16;;;21.60;54.31
56414;BME280;42318;48.452;19.526;2024-02-15T13:32:42;98941.50;;;21.57;54.31
56414;BME280;42318;48.452;19.526;2024-02-15T13:35:42;98946.75;;;21.64;54.63
56414;BME280;42318;48.452;19.526;2024-02-15T13:38:43;98940.47;;;21.63;54.48
56414;BME280;42318;48.452;19.526;2024-02-15T13:41:43;98926.53;;;21.60;54.77
56414;BME280;42318;48.452;19.526;2024-02-15T13:44:45;98944.34;;;21.68;54.68
56414;BME280;42318;48.452;19.526;2024-02-15T13:47:46;98935.09;;;21.69;55.00
56414;BME280;42318;48.452;19.526;2024-02-15T13:50:53;98939.47;;;21.70;55.14
56414;BME280;42318;48.452;19.526;2024-02-15T13:53:54;98941.28;;;21.64;55.05
56414;BME280;42318;48.452;19.526;2024-02-15T13:56:56;98948.47;;;21.70;54.99
56414;BME280;42318;48.452;19.526;2024-02-15T13:59:57;98945.19;;;21.68;55.31
56414;BME280;42318;48.452;19.526;2024-02-15T14:02:59;98933.38;;;21.62;54.89
56414;BME280;42318;48.452;19.526;2024-02-15T14:06:00;98951.47;;;21.69;55.06
56414;BME280;42318;48.452;19.526;2024-02-15T14:09:01;98936.09;;;21.62;55.25
56414;BME280;42318;48.452;19.526;2024-02-15T14:12:02;98945.66;;;21.65;55.00
56414;BME280;42318;48.452;19.526;2024-02-15T14:15:06;98934.75;;;21.65;54.95
56414;BME280;42318;48.452;19.526;2024-02-15T14:18:09;98932.84;;;21.66;55.01
56414;BME280;42318;48.452;19.526;2024-02-15T14:21:19;98923.84;;;21.65;54.81
56414;BME280;42318;48.452;19.526;2024-02-15T14:24:20;98934.75;;;21.65;55.15
56414;BME280;42318;48.452;19.526;2024-02-15T14:27:23;98926.84;;;21.63;54.87
56414;BME280;42318;48.452;19.526;2024-02-15T14:30:24;98933.94;;;21.64;54.99
56414;BME280;42318;48.452;19.526;2024-02-15T14:33:44;98926.00;;;21.63;54.78
56414;BME280;42318;48.452;19.526;2024-02-15T14:36:45;98930.13;;;21.66;54.99
56414;BME280;42318;48.452;19.526;2024-02-15T14:39:48;98916.94;;;21.57;54.91
56414;BME280;42318;48.452;19.526;2024-02-15T14:42:48;98934.50;;;21.67;54.73
56414;BME280;42318;48.452;19.526;2024-02-15T14:45:49;98936.66;;;21.64;54.79
56414;BME280;42318;48.452;19.526;2024-02-15T14:48:50;98936.41;;;21.66;54.92
56414;BME280;42318;48.452;19.526;2024-02-15T14:51:50;98926.31;;;21.67;54.52
56414;BME280;42318;48.452;19.526;2024-02-15T14:54:51;98921.59;;;21.57;54.47
56414;BME280;42318;48.452;19.526;2024-02-15T14:57:52;98935.59;;;21.66;54.61
56414;BME280;42318;48.452;19.526;2024-02-15T15:00:53;98932.84;;;21.66;54.33
56414;BME280;42318;48.452;19.526;2024-02-15T15:03:55;98929.31;;;21.65;54.69
56414;BME280;42318;48.452;19.526;2024-02-15T15:06:56;98939.38;;;21.64;54.68
56414;BME280;42318;48.452;19.526;2024-02-15T15:10:15;98942.13;;;21.64;54.37
56414;BME280;42318;48.452;19.526;2024-02-15T15:13:34;98934.72;;;21.60;54.25
56414;BME280;42318;48.452;19.526;2024-02-15T15:16:35;98930.06;;;21.60;54.38
56414;BME280;42318;48.452;19.526;2024-02-15T15:19:36;98941.56;;;21.62;54.50
56414;BME280;42318;48.452;19.526;2024-02-15T15:22:37;98935.84;;;21.64;54.55
56414;BME280;42318;48.452;19.526;2024-02-15T15:25:41;98940.47;;;21.63;54.21
56414;BME280;42318;48.452;19.526;2024-02-15T15:28:41;98951.38;;;21.63;54.32
56414;BME280;42318;48.452;19.526;2024-02-15T15:31:43;98938.56;;;21.64;54.27
56414;BME280;42318;48.452;19.526;2024-02-15T15:34:44;98933.38;;;21.62;54.28
56414;BME280;42318;48.452;19.526;2024-02-15T15:37:44;98936.91;;;21.63;54.21
56414;BME280;42318;48.452;19.526;2024-02-15T15:40:46;98936.09;;;21.62;54.43
56414;BME280;42318;48.452;19.526;2024-02-15T15:43:46;98934.19;;;21.63;54.05
56414;BME280;42318;48.452;19.526;2024-02-15T15:46:47;98923.50;;;21.56;54.16
56414;BME280;42318;48.452;19.526;2024-02-15T15:49:48;98931.47;;;21.63;53.99
56414;BME280;42318;48.452;19.526;2024-02-15T15:52:49;98932.28;;;21.63;54.22
56414;BME280;42318;48.452;19.526;2024-02-15T15:55:49;98927.34;;;21.60;54.30
56414;BME280;42318;48.452;19.526;2024-02-15T15:58:50;98914.47;;;21.56;54.20
56414;BME280;42318;48.452;19.526;2024-02-15T16:01:51;98939.91;;;21.61;54.28